Terminal Aerodrome Forecast
Issued by NWS Wilmington, NC

Home | Current Version | Previous Version | Text Only | Print | Product List | Glossary On
Versions: 1 2 3 4 5 6 7 8 9 10 11 12 13 14 15 16 17 18 19 20
860
FTUS42 KILM 171307 AAA
TAFLBT
TAF AMD
KLBT 171307Z 1713/1812 08003KT 1/4SM FG VV002
      TEMPO 1714/1716 1SM BR BKN004
     FM171600 VRB03KT 2SM BR BKN006
     FM171800 24005KT P6SM SCT005 BKN015
     FM171900 24010KT P6SM FEW007 SCT250
     FM180200 21005KT P6SM BKN250
     FM180800 22005KT P6SM VCSH SCT040 BKN080=

USA.gov is the U.S. government's official web portal to all federal, state and local government web resources and services.